sensor_id;sensor_type;location;lat;lon;timestamp;temperature;humidity
7498;DHT22;3790;48.806;9.140;2023-07-31T00:00:24;16.60;99.90
7498;DHT22;3790;48.806;9.140;2023-07-31T00:05:25;16.50;99.90
7498;DHT22;3790;48.806;9.140;2023-07-31T00:10:26;16.60;99.90
7498;DHT22;3790;48.806;9.140;2023-07-31T00:15:26;16.50;99.90
7498;DHT22;3790;48.806;9.140;2023-07-31T00:20:27;16.30;99.90
7498;DHT22;3790;48.806;9.140;2023-07-31T00:25:27;16.20;99.90
7498;DHT22;3790;48.806;9.140;2023-07-31T00:30:28;16.10;99.90
7498;DHT22;3790;48.806;9.140;2023-07-31T00:35:28;16.10;99.90
7498;DHT22;3790;48.806;9.140;2023-07-31T00:40:29;15.90;99.90
7498;DHT22;3790;48.806;9.140;2023-07-31T00:45:30;15.70;99.90
7498;DHT22;3790;48.806;9.140;2023-07-31T00:50:31;15.60;99.90
7498;DHT22;3790;48.806;9.140;2023-07-31T00:55:31;15.60;99.90
7498;DHT22;3790;48.806;9.140;2023-07-31T01:00:32;15.60;99.90
7498;DHT22;3790;48.806;9.140;2023-07-31T01:05:43;15.60;99.90
7498;DHT22;3790;48.806;9.140;2023-07-31T01:10:52;15.50;99.90
7498;DHT22;3790;48.806;9.140;2023-07-31T01:15:54;15.50;99.90
7498;DHT22;3790;48.806;9.140;2023-07-31T01:21:03;15.50;99.90
7498;DHT22;3790;48.806;9.140;2023-07-31T01:26:21;15.30;99.90
7498;DHT22;3790;48.806;9.140;2023-07-31T01:31:23;15.20;99.90
7498;DHT22;3790;48.806;9.140;2023-07-31T01:36:25;15.20;99.90
7498;DHT22;3790;48.806;9.140;2023-07-31T01:41:26;15.20;99.90
7498;DHT22;3790;48.806;9.140;2023-07-31T01:46:26;15.20;99.90
7498;DHT22;3790;48.806;9.140;2023-07-31T01:51:27;15.40;99.90
7498;DHT22;3790;48.806;9.140;2023-07-31T01:56:27;15.60;99.90
7498;DHT22;3790;48.806;9.140;2023-07-31T02:01:28;15.60;99.90
7498;DHT22;3790;48.806;9.140;2023-07-31T02:06:29;15.60;99.90
7498;DHT22;3790;48.806;9.140;2023-07-31T02:11:29;15.50;99.90
7498;DHT22;3790;48.806;9.140;2023-07-31T02:16:30;15.40;99.90
7498;DHT22;3790;48.806;9.140;2023-07-31T02:21:30;15.50;99.90
7498;DHT22;3790;48.806;9.140;2023-07-31T02:26:33;15.60;99.90
7498;DHT22;3790;48.806;9.140;2023-07-31T02:31:33;15.50;99.90
7498;DHT22;3790;48.806;9.140;2023-07-31T02:36:34;15.40;99.90
7498;DHT22;3790;48.806;9.140;2023-07-31T02:41:34;15.40;99.90
7498;DHT22;3790;48.806;9.140;2023-07-31T02:46:35;15.30;99.90
7498;DHT22;3790;48.806;9.140;2023-07-31T02:51:35;15.30;99.90
7498;DHT22;3790;48.806;9.140;2023-07-31T02:56:36;15.30;99.90
7498;DHT22;3790;48.806;9.140;2023-07-31T03:01:36;15.30;99.90
7498;DHT22;3790;48.806;9.140;2023-07-31T03:06:37;15.10;99.90
7498;DHT22;3790;48.806;9.140;2023-07-31T03:11:38;15.10;99.90
7498;DHT22;3790;48.806;9.140;2023-07-31T03:16:38;15.10;99.90
7498;DHT22;3790;48.806;9.140;2023-07-31T03:21:39;15.10;99.90
7498;DHT22;3790;48.806;9.140;2023-07-31T03:26:39;15.20;99.90
7498;DHT22;3790;48.806;9.140;2023-07-31T03:31:41;15.30;99.90
7498;DHT22;3790;48.806;9.140;2023-07-31T03:36:42;15.50;99.90
7498;DHT22;3790;48.806;9.140;2023-07-31T03:41:42;15.50;99.90
7498;DHT22;3790;48.806;9.140;2023-07-31T03:46:43;15.50;99.90
7498;DHT22;3790;48.806;9.140;2023-07-31T03:51:44;15.60;99.90
7498;DHT22;3790;48.806;9.140;2023-07-31T03:56:44;15.60;99.90
7498;DHT22;3790;48.806;9.140;2023-07-31T04:01:45;15.70;99.90
7498;DHT22;3790;48.806;9.140;2023-07-31T04:06:46;15.80;99.90
7498;DHT22;3790;48.806;9.140;2023-07-31T04:11:46;15.90;99.90
7498;DHT22;3790;48.806;9.140;2023-07-31T04:16:47;16.10;99.90
7498;DHT22;3790;48.806;9.140;2023-07-31T04:21:47;16.10;99.90
7498;DHT22;3790;48.806;9.140;2023-07-31T04:26:48;16.40;99.90
7498;DHT22;3790;48.806;9.140;2023-07-31T04:31:48;16.50;99.90
7498;DHT22;3790;48.806;9.140;2023-07-31T04:36:49;16.50;99.90
7498;DHT22;3790;48.806;9.140;2023-07-31T04:41:49;16.50;99.90
7498;DHT22;3790;48.806;9.140;2023-07-31T04:46:50;16.60;99.90
7498;DHT22;3790;48.806;9.140;2023-07-31T04:51:50;16.60;99.90
7498;DHT22;3790;48.806;9.140;2023-07-31T04:56:51;16.90;99.90
7498;DHT22;3790;48.806;9.140;2023-07-31T05:01:52;17.20;99.90
7498;DHT22;3790;48.806;9.140;2023-07-31T05:06:53;17.20;99.90
7498;DHT22;3790;48.806;9.140;2023-07-31T05:11:53;17.30;99.90
7498;DHT22;3790;48.806;9.140;2023-07-31T05:16:54;17.10;99.90
7498;DHT22;3790;48.806;9.140;2023-07-31T05:21:54;17.00;99.90
7498;DHT22;3790;48.806;9.140;2023-07-31T05:27:24;17.00;99.90
7498;DHT22;3790;48.806;9.140;2023-07-31T05:32:27;17.10;99.90
7498;DHT22;3790;48.806;9.140;2023-07-31T05:37:28;17.30;99.90
7498;DHT22;3790;48.806;9.140;2023-07-31T05:42:28;17.60;99.90
7498;DHT22;3790;48.806;9.140;2023-07-31T05:47:29;17.50;99.90
7498;DHT22;3790;48.806;9.140;2023-07-31T05:52:29;17.40;99.90
7498;DHT22;3790;48.806;9.140;2023-07-31T05:57:30;17.60;99.90
7498;DHT22;3790;48.806;9.140;2023-07-31T06:02:30;17.70;99.90
7498;DHT22;3790;48.806;9.140;2023-07-31T06:07:33;17.70;99.90
7498;DHT22;3790;48.806;9.140;2023-07-31T06:12:34;17.80;99.90
7498;DHT22;3790;48.806;9.140;2023-07-31T06:17:35;17.90;99.90
7498;DHT22;3790;48.806;9.140;2023-07-31T06:22:36;18.10;99.90
7498;DHT22;3790;48.806;9.140;2023-07-31T06:27:36;18.30;99.90
7498;DHT22;3790;48.806;9.140;2023-07-31T06:32:37;18.60;99.90
7498;DHT22;3790;48.806;9.140;2023-07-31T06:37:37;18.80;99.90
7498;DHT22;3790;48.806;9.140;2023-07-31T06:42:40;18.80;99.90
7498;DHT22;3790;48.806;9.140;2023-07-31T06:47:41;18.70;99.90
7498;DHT22;3790;48.806;9.140;2023-07-31T06:52:41;18.90;99.90
7498;DHT22;3790;48.806;9.140;2023-07-31T06:57:42;19.10;99.90
7498;DHT22;3790;48.806;9.140;2023-07-31T07:02:42;19.10;99.90
7498;DHT22;3790;48.806;9.140;2023-07-31T07:07:43;19.20;99.90
7498;DHT22;3790;48.806;9.140;2023-07-31T07:12:44;19.30;99.90
7498;DHT22;3790;48.806;9.140;2023-07-31T07:17:44;19.40;99.90
7498;DHT22;3790;48.806;9.140;2023-07-31T07:22:45;20.00;99.90
7498;DHT22;3790;48.806;9.140;2023-07-31T07:27:45;20.30;99.90
7498;DHT22;3790;48.806;9.140;2023-07-31T07:32:46;20.10;99.90
7498;DHT22;3790;48.806;9.140;2023-07-31T07:37:48;20.30;99.90
7498;DHT22;3790;48.806;9.140;2023-07-31T07:42:50;20.20;99.90
7498;DHT22;3790;48.806;9.140;2023-07-31T07:47:53;20.20;99.90
7498;DHT22;3790;48.806;9.140;2023-07-31T07:52:53;20.40;99.90
7498;DHT22;3790;48.806;9.140;2023-07-31T07:57:54;20.70;99.90
7498;DHT22;3790;48.806;9.140;2023-07-31T08:02:54;20.20;99.90
7498;DHT22;3790;48.806;9.140;2023-07-31T08:07:57;20.00;99.90
7498;DHT22;3790;48.806;9.140;2023-07-31T08:12:58;20.50;99.90
7498;DHT22;3790;48.806;9.140;2023-07-31T08:17:58;20.70;99.90
7498;DHT22;3790;48.806;9.140;2023-07-31T08:22:59;20.80;99.90
7498;DHT22;3790;48.806;9.140;2023-07-31T08:27:59;20.60;99.90
7498;DHT22;3790;48.806;9.140;2023-07-31T08:33:00;20.90;99.90
7498;DHT22;3790;48.806;9.140;2023-07-31T08:38:01;21.20;99.90
7498;DHT22;3790;48.806;9.140;2023-07-31T08:43:01;21.70;99.90
7498;DHT22;3790;48.806;9.140;2023-07-31T08:48:02;21.20;99.90
7498;DHT22;3790;48.806;9.140;2023-07-31T08:53:03;21.10;99.90
7498;DHT22;3790;48.806;9.140;2023-07-31T08:58:04;21.20;99.90
7498;DHT22;3790;48.806;9.140;2023-07-31T09:03:08;21.60;99.90
7498;DHT22;3790;48.806;9.140;2023-07-31T09:08:09;21.80;99.90
7498;DHT22;3790;48.806;9.140;2023-07-31T09:13:14;21.60;99.90
7498;DHT22;3790;48.806;9.140;2023-07-31T09:18:15;21.50;99.90
7498;DHT22;3790;48.806;9.140;2023-07-31T09:23:19;21.80;99.90
7498;DHT22;3790;48.806;9.140;2023-07-31T09:28:36;21.40;99.90
7498;DHT22;3790;48.806;9.140;2023-07-31T09:33:54;21.60;99.90
7498;DHT22;3790;48.806;9.140;2023-07-31T09:38:55;21.60;99.90
7498;DHT22;3790;48.806;9.140;2023-07-31T09:43:56;22.10;99.90
7498;DHT22;3790;48.806;9.140;2023-07-31T09:49:10;22.50;99.90
7498;DHT22;3790;48.806;9.140;2023-07-31T09:54:15;22.50;99.90
7498;DHT22;3790;48.806;9.140;2023-07-31T09:59:18;22.70;99.90
7498;DHT22;3790;48.806;9.140;2023-07-31T10:04:20;22.60;99.90
7498;DHT22;3790;48.806;9.140;2023-07-31T10:09:29;22.30;99.90
7498;DHT22;3790;48.806;9.140;2023-07-31T10:14:31;21.70;99.90
7498;DHT22;3790;48.806;9.140;2023-07-31T10:19:32;21.80;99.90
7498;DHT22;3790;48.806;9.140;2023-07-31T10:24:36;21.80;99.90
7498;DHT22;3790;48.806;9.140;2023-07-31T10:29:39;21.80;99.90
7498;DHT22;3790;48.806;9.140;2023-07-31T10:34:40;21.90;99.90
7498;DHT22;3790;48.806;9.140;2023-07-31T10:39:41;22.30;99.90
7498;DHT22;3790;48.806;9.140;2023-07-31T10:44:46;22.80;99.90
7498;DHT22;3790;48.806;9.140;2023-07-31T10:49:47;22.90;99.90
7498;DHT22;3790;48.806;9.140;2023-07-31T10:54:49;22.60;99.90
7498;DHT22;3790;48.806;9.140;2023-07-31T10:59:50;22.60;99.90
7498;DHT22;3790;48.806;9.140;2023-07-31T11:05:07;22.40;99.90
7498;DHT22;3790;48.806;9.140;2023-07-31T11:10:08;22.40;99.90
7498;DHT22;3790;48.806;9.140;2023-07-31T11:15:09;22.80;99.90
7498;DHT22;3790;48.806;9.140;2023-07-31T11:20:12;23.00;99.90
7498;DHT22;3790;48.806;9.140;2023-07-31T11:25:12;23.70;99.90
7498;DHT22;3790;48.806;9.140;2023-07-31T11:30:14;23.20;99.90
7498;DHT22;3790;48.806;9.140;2023-07-31T11:35:15;23.50;99.90
7498;DHT22;3790;48.806;9.140;2023-07-31T11:40:16;23.40;99.90
7498;DHT22;3790;48.806;9.140;2023-07-31T11:45:17;23.40;99.90
7498;DHT22;3790;48.806;9.140;2023-07-31T11:50:18;23.70;99.90
7498;DHT22;3790;48.806;9.140;2023-07-31T11:55:19;23.50;99.90
7498;DHT22;3790;48.806;9.140;2023-07-31T12:00:19;23.70;99.90
7498;DHT22;3790;48.806;9.140;2023-07-31T12:05:22;23.60;99.90
7498;DHT22;3790;48.806;9.140;2023-07-31T12:10:28;23.60;99.90
7498;DHT22;3790;48.806;9.140;2023-07-31T12:15:48;23.50;99.90
7498;DHT22;3790;48.806;9.140;2023-07-31T12:20:59;23.50;99.90
7498;DHT22;3790;48.806;9.140;2023-07-31T12:26:06;23.80;99.90
7498;DHT22;3790;48.806;9.140;2023-07-31T12:31:10;23.70;99.90
7498;DHT22;3790;48.806;9.140;2023-07-31T12:36:14;23.40;99.90
7498;DHT22;3790;48.806;9.140;2023-07-31T12:41:15;23.50;99.90
7498;DHT22;3790;48.806;9.140;2023-07-31T12:46:15;23.70;99.90
7498;DHT22;3790;48.806;9.140;2023-07-31T12:51:17;23.20;99.90
7498;DHT22;3790;48.806;9.140;2023-07-31T12:56:17;22.90;99.90
7498;DHT22;3790;48.806;9.140;2023-07-31T13:01:18;22.60;99.90
7498;DHT22;3790;48.806;9.140;2023-07-31T13:06:19;22.40;99.90
7498;DHT22;3790;48.806;9.140;2023-07-31T13:11:19;22.30;99.90
7498;DHT22;3790;48.806;9.140;2023-07-31T13:16:20;22.40;99.90
7498;DHT22;3790;48.806;9.140;2023-07-31T13:21:20;22.70;99.90
7498;DHT22;3790;48.806;9.140;2023-07-31T13:26:22;22.40;99.90
7498;DHT22;3790;48.806;9.140;2023-07-31T13:31:23;22.40;99.90
7498;DHT22;3790;48.806;9.140;2023-07-31T13:36:24;22.90;99.90
7498;DHT22;3790;48.806;9.140;2023-07-31T13:41:24;23.60;99.90
7498;DHT22;3790;48.806;9.140;2023-07-31T13:46:25;24.00;99.90
7498;DHT22;3790;48.806;9.140;2023-07-31T13:51:26;23.50;99.90
7498;DHT22;3790;48.806;9.140;2023-07-31T13:56:27;23.00;99.90
7498;DHT22;3790;48.806;9.140;2023-07-31T14:01:28;23.10;99.90
7498;DHT22;3790;48.806;9.140;2023-07-31T14:06:28;23.00;99.90
7498;DHT22;3790;48.806;9.140;2023-07-31T14:11:31;23.10;99.90
7498;DHT22;3790;48.806;9.140;2023-07-31T14:16:31;23.30;99.90
7498;DHT22;3790;48.806;9.140;2023-07-31T14:21:32;23.40;99.90
7498;DHT22;3790;48.806;9.140;2023-07-31T14:26:33;23.60;99.90
7498;DHT22;3790;48.806;9.140;2023-07-31T14:31:35;24.20;99.90
7498;DHT22;3790;48.806;9.140;2023-07-31T14:36:36;24.30;99.90
7498;DHT22;3790;48.806;9.140;2023-07-31T14:41:36;24.20;99.90
7498;DHT22;3790;48.806;9.140;2023-07-31T14:46:37;24.00;99.90
7498;DHT22;3790;48.806;9.140;2023-07-31T14:51:37;24.00;99.90
7498;DHT22;3790;48.806;9.140;2023-07-31T14:56:38;24.10;99.90
7498;DHT22;3790;48.806;9.140;2023-07-31T15:01:38;24.10;99.90
7498;DHT22;3790;48.806;9.140;2023-07-31T15:06:39;24.00;99.90
7498;DHT22;3790;48.806;9.140;2023-07-31T15:11:40;24.10;99.90
7498;DHT22;3790;48.806;9.140;2023-07-31T15:16:40;24.20;99.90
7498;DHT22;3790;48.806;9.140;2023-07-31T15:21:41;23.80;99.90
7498;DHT22;3790;48.806;9.140;2023-07-31T15:26:41;24.10;99.90
7498;DHT22;3790;48.806;9.140;2023-07-31T15:31:42;24.30;99.90
7498;DHT22;3790;48.806;9.140;2023-07-31T15:36:43;24.10;99.90
7498;DHT22;3790;48.806;9.140;2023-07-31T15:41:43;24.00;99.90
7498;DHT22;3790;48.806;9.140;2023-07-31T15:46:44;23.60;99.90
7498;DHT22;3790;48.806;9.140;2023-07-31T15:51:44;23.80;99.90
7498;DHT22;3790;48.806;9.140;2023-07-31T15:56:45;24.30;99.90
7498;DHT22;3790;48.806;9.140;2023-07-31T16:01:45;24.20;99.90
7498;DHT22;3790;48.806;9.140;2023-07-31T16:06:46;24.30;99.90
7498;DHT22;3790;48.806;9.140;2023-07-31T16:11:47;24.10;99.90
7498;DHT22;3790;48.806;9.140;2023-07-31T16:16:47;24.40;99.90
7498;DHT22;3790;48.806;9.140;2023-07-31T16:21:48;24.30;99.90
7498;DHT22;3790;48.806;9.140;2023-07-31T16:26:48;23.90;99.90
7498;DHT22;3790;48.806;9.140;2023-07-31T16:31:49;23.50;99.90
7498;DHT22;3790;48.806;9.140;2023-07-31T16:36:50;23.00;99.90
7498;DHT22;3790;48.806;9.140;2023-07-31T16:41:52;22.90;99.90
7498;DHT22;3790;48.806;9.140;2023-07-31T16:46:52;22.80;99.90
7498;DHT22;3790;48.806;9.140;2023-07-31T16:51:53;22.80;99.90
7498;DHT22;3790;48.806;9.140;2023-07-31T16:56:53;22.60;99.90
7498;DHT22;3790;48.806;9.140;2023-07-31T17:01:54;22.50;99.90
7498;DHT22;3790;48.806;9.140;2023-07-31T17:06:56;22.40;99.90
7498;DHT22;3790;48.806;9.140;2023-07-31T17:11:57;22.50;99.90
7498;DHT22;3790;48.806;9.140;2023-07-31T17:16:58;22.40;99.90
7498;DHT22;3790;48.806;9.140;2023-07-31T17:21:58;22.30;99.90
7498;DHT22;3790;48.806;9.140;2023-07-31T17:26:59;22.20;99.90
7498;DHT22;3790;48.806;9.140;2023-07-31T17:31:59;22.10;99.90
7498;DHT22;3790;48.806;9.140;2023-07-31T17:37:00;22.00;99.90
7498;DHT22;3790;48.806;9.140;2023-07-31T17:42:00;22.10;99.90
7498;DHT22;3790;48.806;9.140;2023-07-31T17:47:01;22.10;99.90
7498;DHT22;3790;48.806;9.140;2023-07-31T17:52:02;22.10;99.90
7498;DHT22;3790;48.806;9.140;2023-07-31T17:57:03;22.10;99.90
7498;DHT22;3790;48.806;9.140;2023-07-31T18:02:04;22.10;99.90
7498;DHT22;3790;48.806;9.140;2023-07-31T18:07:05;22.00;99.90
7498;DHT22;3790;48.806;9.140;2023-07-31T18:12:06;21.90;99.90
7498;DHT22;3790;48.806;9.140;2023-07-31T18:17:08;21.80;99.90
7498;DHT22;3790;48.806;9.140;2023-07-31T18:22:08;21.80;99.90
7498;DHT22;3790;48.806;9.140;2023-07-31T18:27:09;22.10;99.90
7498;DHT22;3790;48.806;9.140;2023-07-31T18:32:09;22.20;99.90
7498;DHT22;3790;48.806;9.140;2023-07-31T18:37:10;22.20;99.90
7498;DHT22;3790;48.806;9.140;2023-07-31T18:42:18;22.00;99.90
7498;DHT22;3790;48.806;9.140;2023-07-31T18:47:19;21.70;99.90
7498;DHT22;3790;48.806;9.140;2023-07-31T18:52:19;21.30;99.90
7498;DHT22;3790;48.806;9.140;2023-07-31T18:57:20;21.10;99.90
7498;DHT22;3790;48.806;9.140;2023-07-31T19:02:20;20.30;99.90
7498;DHT22;3790;48.806;9.140;2023-07-31T19:07:23;19.70;99.90
7498;DHT22;3790;48.806;9.140;2023-07-31T19:12:29;19.30;99.90
7498;DHT22;3790;48.806;9.140;2023-07-31T19:17:31;19.10;99.90
7498;DHT22;3790;48.806;9.140;2023-07-31T19:22:31;18.90;99.90
7498;DHT22;3790;48.806;9.140;2023-07-31T19:27:32;18.80;99.90
7498;DHT22;3790;48.806;9.140;2023-07-31T19:43:40;18.30;99.90
7498;DHT22;3790;48.806;9.140;2023-07-31T19:48:40;18.20;99.90
7498;DHT22;3790;48.806;9.140;2023-07-31T19:59:38;18.00;99.90
7498;DHT22;3790;48.806;9.140;2023-07-31T20:04:38;17.90;99.90
7498;DHT22;3790;48.806;9.140;2023-07-31T20:09:40;17.90;99.90
7498;DHT22;3790;48.806;9.140;2023-07-31T20:14:40;18.00;99.90
7498;DHT22;3790;48.806;9.140;2023-07-31T20:19:43;17.80;99.90
7498;DHT22;3790;48.806;9.140;2023-07-31T20:24:44;18.00;99.90
7498;DHT22;3790;48.806;9.140;2023-07-31T20:29:44;18.20;99.90
7498;DHT22;3790;48.806;9.140;2023-07-31T20:34:45;18.30;99.90
7498;DHT22;3790;48.806;9.140;2023-07-31T20:39:45;18.40;99.90
7498;DHT22;3790;48.806;9.140;2023-07-31T20:44:46;18.40;99.90
7498;DHT22;3790;48.806;9.140;2023-07-31T20:49:47;18.40;99.90
7498;DHT22;3790;48.806;9.140;2023-07-31T20:54:48;18.30;99.90
7498;DHT22;3790;48.806;9.140;2023-07-31T20:59:48;18.30;99.90
7498;DHT22;3790;48.806;9.140;2023-07-31T21:04:49;18.20;99.90
7498;DHT22;3790;48.806;9.140;2023-07-31T21:09:49;18.30;99.90
7498;DHT22;3790;48.806;9.140;2023-07-31T21:14:57;18.30;99.90
7498;DHT22;3790;48.806;9.140;2023-07-31T21:19:58;18.30;99.90
7498;DHT22;3790;48.806;9.140;2023-07-31T21:24:58;18.30;99.90
7498;DHT22;3790;48.806;9.140;2023-07-31T21:29:59;18.30;99.90
7498;DHT22;3790;48.806;9.140;2023-07-31T21:35:00;18.40;99.90
7498;DHT22;3790;48.806;9.140;2023-07-31T21:40:00;18.30;99.90
7498;DHT22;3790;48.806;9.140;2023-07-31T21:45:01;18.20;99.90
7498;DHT22;3790;48.806;9.140;2023-07-31T21:50:01;18.20;99.90
7498;DHT22;3790;48.806;9.140;2023-07-31T21:55:02;18.20;99.90
7498;DHT22;3790;48.806;9.140;2023-07-31T22:00:04;18.20;99.90
7498;DHT22;3790;48.806;9.140;2023-07-31T22:05:05;18.20;99.90
7498;DHT22;3790;48.806;9.140;2023-07-31T22:10:06;18.20;99.90
7498;DHT22;3790;48.806;9.140;2023-07-31T22:15:07;18.10;99.90
7498;DHT22;3790;48.806;9.140;2023-07-31T22:20:11;18.20;99.90
7498;DHT22;3790;48.806;9.140;2023-07-31T22:25:17;18.20;99.90
7498;DHT22;3790;48.806;9.140;2023-07-31T22:30:18;18.10;99.90
7498;DHT22;3790;48.806;9.140;2023-07-31T22:35:18;18.10;99.90
7498;DHT22;3790;48.806;9.140;2023-07-31T22:40:19;18.10;99.90
7498;DHT22;3790;48.806;9.140;2023-07-31T22:45:19;18.20;99.90
7498;DHT22;3790;48.806;9.140;2023-07-31T22:50:20;18.20;99.90
7498;DHT22;3790;48.806;9.140;2023-07-31T22:55:21;18.20;99.90
7498;DHT22;3790;48.806;9.140;2023-07-31T23:00:21;18.30;99.90
7498;DHT22;3790;48.806;9.140;2023-07-31T23:05:22;18.30;99.90
7498;DHT22;3790;48.806;9.140;2023-07-31T23:10:23;18.30;99.90
7498;DHT22;3790;48.806;9.140;2023-07-31T23:15:24;18.10;99.90
7498;DHT22;3790;48.806;9.140;2023-07-31T23:20:24;18.20;99.90
7498;DHT22;3790;48.806;9.140;2023-07-31T23:25:25;18.10;99.90
7498;DHT22;3790;48.806;9.140;2023-07-31T23:30:28;18.10;99.90
7498;DHT22;3790;48.806;9.140;2023-07-31T23:35:29;18.10;99.90
7498;DHT22;3790;48.806;9.140;2023-07-31T23:40:30;17.90;99.90
7498;DHT22;3790;48.806;9.140;2023-07-31T23:45:30;17.90;99.90
7498;DHT22;3790;48.806;9.140;2023-07-31T23:50:31;17.80;99.90
7498;DHT22;3790;48.806;9.140;2023-07-31T23:55:33;18.00;99.90
